createdAt,value
2018-12-21T00:00:41.274Z,8.98
2018-12-21T00:03:15.184Z,9.04
2018-12-21T00:05:51.125Z,9.10
2018-12-21T00:11:21.969Z,9.06
2018-12-21T00:13:59.926Z,9.06
2018-12-21T00:16:39.153Z,9.01
2018-12-21T00:19:11.540Z,9.03
2018-12-21T00:21:49.446Z,8.98
2018-12-21T00:24:27.516Z,9.05
2018-12-21T00:27:06.510Z,9.06
2018-12-21T00:29:44.461Z,9.08
2018-12-21T00:32:29.851Z,9.05
2018-12-21T00:35:14.901Z,9.05
2018-12-21T00:37:53.513Z,9.01
2018-12-21T00:40:30.577Z,9.08
2018-12-21T00:43:15.369Z,9.26
2018-12-21T00:45:51.780Z,9.16
2018-12-21T00:48:24.384Z,9.11
2018-12-21T00:50:58.203Z,9.11
2018-12-21T00:53:30.582Z,9.08
2018-12-21T00:56:01.617Z,9.04
2018-12-21T00:58:32.762Z,9.14
2018-12-21T01:01:11.751Z,9.10
2018-12-21T01:03:45.864Z,9.10
2018-12-21T01:06:19.769Z,9.18
2018-12-21T01:08:51.878Z,9.29
2018-12-21T01:11:43.750Z,9.15
2018-12-21T01:14:25.200Z,9.12
2018-12-21T01:17:03.670Z,9.08
2018-12-21T01:19:45.404Z,9.13
2018-12-21T01:22:19.599Z,9.09
2018-12-21T01:24:57.690Z,9.16
2018-12-21T01:27:29.136Z,9.23
2018-12-21T01:30:01.106Z,9.20
2018-12-21T01:38:18.936Z,9.25
2018-12-21T01:40:49.962Z,9.28
2018-12-21T01:43:20.778Z,9.34
2018-12-21T01:45:51.911Z,9.30
2018-12-21T01:48:23.153Z,9.19
2018-12-21T01:50:57.073Z,9.17
2018-12-21T01:53:29.436Z,9.18
2018-12-21T01:56:07.170Z,9.28
2018-12-21T01:58:38.280Z,9.26
2018-12-21T02:01:12.130Z,9.21
2018-12-21T02:03:51.108Z,9.17
2018-12-21T02:06:30.220Z,9.26
2018-12-21T02:09:03.038Z,9.20
2018-12-21T02:11:37.130Z,9.26
2018-12-21T02:14:11.141Z,9.27
2018-12-21T02:16:49.419Z,9.30
2018-12-21T02:19:20.509Z,9.30
2018-12-21T02:22:00.224Z,9.27
2018-12-21T02:27:24.701Z,9.33
2018-12-21T02:30:04.405Z,9.30
2018-12-21T02:32:44.628Z,9.35
2018-12-21T02:35:26.132Z,9.40
2018-12-21T02:37:59.068Z,9.39
2018-12-21T02:40:38.847Z,9.35
2018-12-21T02:43:11.173Z,9.36
2018-12-21T02:48:36.179Z,9.31
2018-12-21T02:51:07.253Z,9.39
2018-12-21T02:53:38.326Z,9.40
2018-12-21T02:56:17.262Z,9.37
2018-12-21T02:58:56.312Z,9.27
2018-12-21T03:01:27.525Z,9.30
2018-12-21T03:04:07.292Z,9.28
2018-12-21T03:06:45.315Z,9.30
2018-12-21T03:09:19.219Z,9.24
2018-12-21T03:11:50.237Z,9.25
2018-12-21T03:14:24.130Z,9.27
2018-12-21T03:16:56.363Z,9.29
2018-12-21T03:19:35.954Z,9.34
2018-12-21T03:22:14.538Z,9.35
2018-12-21T03:24:50.852Z,9.28
2018-12-21T03:27:22.035Z,9.32
2018-12-21T03:29:57.822Z,9.31
2018-12-21T03:35:29.499Z,9.23
2018-12-21T03:38:01.068Z,9.04
2018-12-21T03:40:34.983Z,8.94
2018-12-21T03:43:13.106Z,8.77
2018-12-21T03:45:52.003Z,8.73
2018-12-21T03:48:26.898Z,8.71
2018-12-21T03:51:05.988Z,8.69
2018-12-21T03:53:44.080Z,8.70
2018-12-21T03:56:23.096Z,8.68
2018-12-21T03:58:54.431Z,8.66
2018-12-21T04:01:33.380Z,8.64
2018-12-21T04:04:07.722Z,8.63
2018-12-21T04:06:46.754Z,8.71
2018-12-21T04:09:19.302Z,8.69
2018-12-21T04:11:58.025Z,8.82
2018-12-21T04:14:37.249Z,8.74
2018-12-21T04:17:11.266Z,8.79
2018-12-21T04:19:51.027Z,8.74
2018-12-21T04:22:33.978Z,8.81
2018-12-21T04:25:09.395Z,8.83
2018-12-21T04:33:35.901Z,8.83
2018-12-21T04:36:07.541Z,8.91
2018-12-21T04:38:39.637Z,8.93
2018-12-21T04:41:18.143Z,8.91
2018-12-21T04:43:49.255Z,8.91
2018-12-21T04:46:21.313Z,8.79
2018-12-21T04:48:52.532Z,8.80
2018-12-21T04:51:32.402Z,8.64
2018-12-21T04:54:11.980Z,8.55
2018-12-21T04:56:51.863Z,8.49
2018-12-21T04:59:31.631Z,8.35
2018-12-21T05:02:06.963Z,8.29
2018-12-21T05:04:46.121Z,8.21
2018-12-21T05:07:18.433Z,8.23
2018-12-21T05:09:57.206Z,8.17
2018-12-21T05:12:36.233Z,8.16
2018-12-21T05:15:15.281Z,8.18
2018-12-21T05:17:46.660Z,8.17
2018-12-21T05:20:21.557Z,8.17
2018-12-21T05:23:00.771Z,8.18
2018-12-21T05:25:39.601Z,8.13
2018-12-21T05:28:12.136Z,8.13
2018-12-21T05:30:51.819Z,8.17
2018-12-21T05:33:37.722Z,8.16
2018-12-21T05:36:25.277Z,8.30
2018-12-21T05:38:59.332Z,8.40
2018-12-21T05:41:33.226Z,8.37
2018-12-21T05:44:11.237Z,8.30
2018-12-21T05:46:50.494Z,8.26
2018-12-21T05:49:21.839Z,8.35
2018-12-21T05:51:53.061Z,8.37
2018-12-21T05:54:31.836Z,8.36
2018-12-21T05:57:10.938Z,8.44
2018-12-21T05:59:44.979Z,8.36
2018-12-21T06:02:17.270Z,8.34
2018-12-21T06:04:57.059Z,8.39
2018-12-21T06:07:33.922Z,8.38
2018-12-21T06:10:07.030Z,8.42
2018-12-21T06:12:41.360Z,8.43
2018-12-21T06:15:19.458Z,8.35
2018-12-21T06:18:05.242Z,8.37
2018-12-21T06:20:44.384Z,8.41
2018-12-21T06:23:23.094Z,8.34
2018-12-21T06:25:55.603Z,8.46
2018-12-21T06:28:26.561Z,8.51
2018-12-21T06:33:58.285Z,8.43
2018-12-21T06:36:36.076Z,8.35
2018-12-21T06:39:17.050Z,8.37
2018-12-21T06:41:48.268Z,8.35
2018-12-21T06:44:27.358Z,8.42
2018-12-21T06:47:07.373Z,8.40
2018-12-21T06:49:40.820Z,8.41
2018-12-21T06:55:12.794Z,8.41
2018-12-21T06:57:46.110Z,8.44
2018-12-21T07:00:19.310Z,8.46
2018-12-21T07:02:58.931Z,8.44
2018-12-21T07:05:38.979Z,8.46
2018-12-21T07:11:06.029Z,8.48
2018-12-21T07:13:44.833Z,8.48
2018-12-21T07:16:18.744Z,8.48
2018-12-21T07:18:52.378Z,8.55
2018-12-21T07:21:30.767Z,8.54
2018-12-21T07:24:09.573Z,8.55
2018-12-21T07:26:43.602Z,8.55
2018-12-21T07:29:16.093Z,8.56
2018-12-21T07:31:54.892Z,8.60
2018-12-21T07:37:21.394Z,8.59
2018-12-21T07:40:01.798Z,8.62
2018-12-21T07:45:27.304Z,8.60
2018-12-21T07:50:59.985Z,8.60
2018-12-21T07:53:35.879Z,8.62
2018-12-21T07:56:11.968Z,8.62
2018-12-21T07:58:47.017Z,8.67
2018-12-21T08:01:25.198Z,8.66
2018-12-21T08:04:05.056Z,8.67
2018-12-21T08:06:43.390Z,8.71
2018-12-21T08:09:15.566Z,8.75
2018-12-21T08:11:55.394Z,8.76
2018-12-21T08:14:34.232Z,8.85
2018-12-21T08:17:13.256Z,8.76
2018-12-21T08:19:46.662Z,8.80
2018-12-21T08:22:19.052Z,8.82
2018-12-21T08:25:05.816Z,8.82
2018-12-21T08:27:41.062Z,8.90
2018-12-21T08:30:20.082Z,8.81
2018-12-21T08:35:58.632Z,8.84
2018-12-21T08:38:31.442Z,8.89
2018-12-21T08:41:10.353Z,8.91
2018-12-21T08:43:56.254Z,8.93
2018-12-21T08:46:35.832Z,9.00
2018-12-21T08:49:15.819Z,8.99
2018-12-21T08:51:55.073Z,8.94
2018-12-21T08:54:34.291Z,9.04
2018-12-21T08:57:13.422Z,9.00
2018-12-21T08:59:51.574Z,9.08
2018-12-21T09:02:30.551Z,9.04
2018-12-21T09:05:09.650Z,9.04
2018-12-21T09:07:41.658Z,9.05
2018-12-21T09:10:20.825Z,9.13
2018-12-21T09:12:58.699Z,9.11
2018-12-21T09:15:32.867Z,9.14
2018-12-21T09:18:07.796Z,9.20
2018-12-21T09:20:54.922Z,9.14
2018-12-21T09:23:29.770Z,9.11
2018-12-21T09:26:03.816Z,9.19
2018-12-21T09:28:36.201Z,9.19
2018-12-21T09:31:15.203Z,9.25
2018-12-21T09:33:54.413Z,9.21
2018-12-21T09:36:27.613Z,9.23
2018-12-21T09:39:00.700Z,9.22
2018-12-21T09:41:39.432Z,9.23
2018-12-21T09:44:13.473Z,9.26
2018-12-21T09:46:45.755Z,9.40
2018-12-21T09:49:18.177Z,9.34
2018-12-21T09:51:58.847Z,9.34
2018-12-21T09:54:30.304Z,9.38
2018-12-21T09:57:04.122Z,9.42
2018-12-21T10:02:36.719Z,9.53
2018-12-21T10:05:09.416Z,9.51
2018-12-21T10:07:41.044Z,9.51
2018-12-21T10:10:26.252Z,9.52
2018-12-21T10:13:05.490Z,9.59
2018-12-21T10:15:39.464Z,9.65
2018-12-21T10:18:10.702Z,9.67
2018-12-21T10:20:44.735Z,9.69
2018-12-21T10:23:26.131Z,9.75
2018-12-21T10:25:55.754Z,9.80
2018-12-21T10:28:26.808Z,9.88
2018-12-21T10:31:05.553Z,9.90
2018-12-21T10:33:40.610Z,9.96
2018-12-21T10:36:21.410Z,10.02
2018-12-21T10:39:02.539Z,10.08
2018-12-21T10:41:43.006Z,10.13
2018-12-21T10:44:23.634Z,10.25
2018-12-21T10:46:54.163Z,10.25
2018-12-21T10:49:25.312Z,10.38
2018-12-21T10:52:14.140Z,10.52
2018-12-21T10:54:45.502Z,10.61
2018-12-21T10:57:17.713Z,10.69
2018-12-21T10:59:56.147Z,10.73
2018-12-21T11:02:30.279Z,10.75
2018-12-21T11:05:14.989Z,10.96
2018-12-21T11:07:54.351Z,11.09
2018-12-21T11:10:39.046Z,11.11
2018-12-21T11:13:08.882Z,11.33
2018-12-21T11:15:43.771Z,11.48
2018-12-21T11:18:15.143Z,11.71
2018-12-21T11:20:54.262Z,11.81
2018-12-21T11:23:33.289Z,11.92
2018-12-21T11:26:11.393Z,12.00
2018-12-21T11:28:42.745Z,12.12
2018-12-21T11:31:28.945Z,12.23
2018-12-21T11:34:10.046Z,12.21
2018-12-21T11:36:48.421Z,12.20
2018-12-21T11:39:20.734Z,12.34
2018-12-21T11:42:02.245Z,12.40
2018-12-21T11:44:38.437Z,12.48
2018-12-21T11:47:19.363Z,12.52
2018-12-21T11:49:59.796Z,12.54
2018-12-21T11:52:38.876Z,12.55
2018-12-21T11:55:18.030Z,12.61
2018-12-21T11:57:50.334Z,12.67
2018-12-21T12:00:21.304Z,12.69
2018-12-21T12:03:00.778Z,12.66
2018-12-21T12:05:36.697Z,12.71
2018-12-21T12:08:09.041Z,12.81
2018-12-21T12:10:48.762Z,12.95
2018-12-21T12:13:20.052Z,12.88
2018-12-21T12:15:52.406Z,12.92
2018-12-21T12:18:25.399Z,12.98
2018-12-21T12:20:56.459Z,12.98
2018-12-21T12:23:35.164Z,13.28
2018-12-21T12:26:14.209Z,13.01
2018-12-21T12:28:48.333Z,13.07
2018-12-21T12:31:26.479Z,13.07
2018-12-21T12:33:56.937Z,13.05
2018-12-21T12:36:35.837Z,13.15
2018-12-21T12:39:10.885Z,13.14
2018-12-21T12:41:46.934Z,13.25
2018-12-21T12:44:25.026Z,13.28
2018-12-21T12:46:59.298Z,13.25
2018-12-21T12:49:31.353Z,13.37
2018-12-21T12:52:11.270Z,13.45
2018-12-21T12:54:51.682Z,13.50
2018-12-21T12:57:24.443Z,13.56
2018-12-21T12:59:55.478Z,13.62
2018-12-21T13:02:27.631Z,13.65
2018-12-21T13:05:01.557Z,13.65
2018-12-21T13:07:34.806Z,13.72
2018-12-21T13:10:09.220Z,13.76
2018-12-21T13:12:49.803Z,13.73
2018-12-21T13:15:29.431Z,13.75
2018-12-21T13:18:00.780Z,13.74
2018-12-21T13:20:39.710Z,13.73
2018-12-21T13:23:18.756Z,13.78
2018-12-21T13:25:57.714Z,13.66
2018-12-21T13:28:33.004Z,13.68
2018-12-21T13:31:12.143Z,13.79
2018-12-21T13:33:58.892Z,13.73
2018-12-21T13:36:31.458Z,13.78
2018-12-21T13:39:06.944Z,13.75
2018-12-21T13:41:53.874Z,13.95
2018-12-21T13:44:32.836Z,13.75
2018-12-21T13:47:06.827Z,13.80
2018-12-21T13:49:38.237Z,13.73
2018-12-21T13:52:14.038Z,13.68
2018-12-21T13:54:45.416Z,13.64
2018-12-21T13:57:25.863Z,13.57
2018-12-21T14:00:06.880Z,13.63
2018-12-21T14:02:41.185Z,13.58
2018-12-21T14:05:19.264Z,13.59
2018-12-21T14:07:50.631Z,13.64
2018-12-21T14:10:29.353Z,13.55
2018-12-21T14:13:07.293Z,13.62
2018-12-21T14:15:46.278Z,13.58
2018-12-21T14:18:20.307Z,13.59
2018-12-21T14:20:52.597Z,13.61
2018-12-21T14:23:30.486Z,13.55
2018-12-21T14:26:13.179Z,13.58
2018-12-21T14:28:44.212Z,13.50
2018-12-21T14:31:22.879Z,13.56
2018-12-21T14:34:01.975Z,13.52
2018-12-21T14:36:39.921Z,13.51
2018-12-21T14:39:11.374Z,13.58
2018-12-21T14:41:44.412Z,13.56
2018-12-21T14:44:23.320Z,13.54
2018-12-21T14:47:02.360Z,13.53
2018-12-21T14:49:41.145Z,13.59
2018-12-21T14:52:17.427Z,13.54
2018-12-21T14:55:03.062Z,13.44
2018-12-21T14:57:37.589Z,13.46
2018-12-21T15:00:15.424Z,13.41
2018-12-21T15:02:51.490Z,13.38
2018-12-21T15:05:32.125Z,13.44
2018-12-21T15:08:14.113Z,13.40
2018-12-21T15:10:53.392Z,13.35
2018-12-21T15:13:32.438Z,13.30
2018-12-21T15:16:03.818Z,13.40
2018-12-21T15:18:41.550Z,13.21
2018-12-21T15:21:20.532Z,13.11
2018-12-21T15:24:07.230Z,13.15
2018-12-21T15:26:38.774Z,13.21
2018-12-21T15:29:08.851Z,13.11
2018-12-21T15:31:48.600Z,13.10
2018-12-21T15:34:22.420Z,13.05
2018-12-21T15:37:01.468Z,13.00
2018-12-21T15:39:46.144Z,13.06
2018-12-21T15:42:15.888Z,13.07
2018-12-21T15:44:54.736Z,13.06
2018-12-21T15:47:28.116Z,13.05
2018-12-21T15:50:09.014Z,13.04
2018-12-21T15:52:43.919Z,12.99
2018-12-21T15:55:22.967Z,13.03
2018-12-21T15:58:03.744Z,12.99
2018-12-21T16:00:44.103Z,13.00
2018-12-21T16:03:23.030Z,12.97
2018-12-21T16:06:02.063Z,12.99
2018-12-21T16:08:36.178Z,12.97
2018-12-21T16:11:07.474Z,13.00
2018-12-21T16:13:46.359Z,12.95
2018-12-21T16:16:31.964Z,12.98
2018-12-21T16:19:08.507Z,12.87
2018-12-21T16:21:50.923Z,12.92
2018-12-21T16:24:29.330Z,12.77
2018-12-21T16:27:11.030Z,12.69
2018-12-21T16:29:50.529Z,12.59
2018-12-21T16:32:25.738Z,12.43
2018-12-21T16:35:04.965Z,12.51
2018-12-21T16:37:38.254Z,12.66
2018-12-21T16:40:09.147Z,12.67
2018-12-21T16:42:43.962Z,12.62
2018-12-21T16:45:21.880Z,12.71
2018-12-21T16:48:09.090Z,12.73
2018-12-21T16:50:46.929Z,12.61
2018-12-21T16:53:33.616Z,12.50
2018-12-21T16:56:13.480Z,12.51
2018-12-21T16:58:47.422Z,12.54
2018-12-21T17:01:27.922Z,12.46
2018-12-21T17:04:00.643Z,12.54
2018-12-21T17:06:38.542Z,12.92
2018-12-21T17:09:13.543Z,12.53
2018-12-21T17:11:52.472Z,12.48
2018-12-21T17:14:31.600Z,12.36
2018-12-21T17:17:17.322Z,12.32
2018-12-21T17:19:56.765Z,12.35
2018-12-21T17:22:34.736Z,12.45
2018-12-21T17:25:17.395Z,12.31
2018-12-21T17:27:49.230Z,12.42
2018-12-21T17:30:35.750Z,12.33
2018-12-21T17:33:08.326Z,12.32
2018-12-21T17:35:39.573Z,12.26
2018-12-21T17:38:12.695Z,12.29
2018-12-21T17:40:51.482Z,12.21
2018-12-21T17:43:29.464Z,12.28
2018-12-21T17:46:08.790Z,12.38
2018-12-21T17:48:44.746Z,12.26
2018-12-21T17:51:18.931Z,12.26
2018-12-21T17:53:58.208Z,12.18
2018-12-21T17:56:37.143Z,12.24
2018-12-21T17:59:14.303Z,12.28
2018-12-21T18:01:52.430Z,12.32
2018-12-21T18:04:31.747Z,12.34
2018-12-21T18:07:13.301Z,12.26
2018-12-21T18:09:51.754Z,12.31
2018-12-21T18:12:30.705Z,12.36
2018-12-21T18:15:09.533Z,12.29
2018-12-21T18:17:40.794Z,12.35
2018-12-21T18:20:18.657Z,12.35
2018-12-21T18:22:56.552Z,12.38
2018-12-21T18:25:35.490Z,12.36
2018-12-21T18:28:11.264Z,12.33
2018-12-21T18:30:45.703Z,12.40
2018-12-21T18:33:25.729Z,12.44
2018-12-21T18:36:00.766Z,12.45
2018-12-21T18:38:33.151Z,12.40
2018-12-21T18:41:13.560Z,12.42
2018-12-21T18:43:52.688Z,12.38
2018-12-21T18:46:34.577Z,12.39
2018-12-21T18:49:08.395Z,12.39
2018-12-21T18:51:47.962Z,12.39
2018-12-21T18:54:21.811Z,12.36
2018-12-21T18:56:59.774Z,12.40
2018-12-21T18:59:34.898Z,12.36
2018-12-21T19:02:13.170Z,12.31
2018-12-21T19:04:52.057Z,12.42
2018-12-21T19:07:27.149Z,12.44
2018-12-21T19:10:06.521Z,12.40
2018-12-21T19:12:41.876Z,12.34
2018-12-21T19:15:15.383Z,12.40
2018-12-21T19:17:48.301Z,12.33
2018-12-21T19:20:27.876Z,12.31
2018-12-21T19:23:08.042Z,12.31
2018-12-21T19:25:44.009Z,12.40
2018-12-21T19:28:18.030Z,12.39
2018-12-21T19:31:07.244Z,12.27
2018-12-21T19:33:43.064Z,12.38
2018-12-21T19:36:23.134Z,12.31
2018-12-21T19:38:55.248Z,12.42
2018-12-21T19:41:35.850Z,12.35
2018-12-21T19:44:13.906Z,12.22
2018-12-21T19:46:54.137Z,12.21
2018-12-21T19:49:27.306Z,12.39
2018-12-21T19:52:05.094Z,12.34
2018-12-21T19:54:36.647Z,12.27
2018-12-21T19:57:10.037Z,12.29
2018-12-21T19:59:41.680Z,12.34
2018-12-21T20:02:15.841Z,12.29
2018-12-21T20:04:56.442Z,12.33
2018-12-21T20:07:29.492Z,12.30
2018-12-21T20:10:16.803Z,12.42
2018-12-21T20:12:56.192Z,12.30
2018-12-21T20:15:31.263Z,12.32
2018-12-21T20:18:03.732Z,12.39
2018-12-21T20:20:42.444Z,12.30
2018-12-21T20:23:28.143Z,12.25
2018-12-21T20:26:00.008Z,12.18
2018-12-21T20:28:46.604Z,12.22
2018-12-21T20:31:17.487Z,12.21
2018-12-21T20:33:53.491Z,12.22
2018-12-21T20:36:24.928Z,12.22
2018-12-21T20:38:57.746Z,12.24
2018-12-21T20:41:45.618Z,12.18
2018-12-21T20:44:24.391Z,12.18
2018-12-21T20:46:56.777Z,12.25
2018-12-21T20:49:27.646Z,12.18
2018-12-21T20:52:06.639Z,12.44
2018-12-21T20:54:46.665Z,12.22
2018-12-21T20:57:25.747Z,12.18
2018-12-21T21:00:08.822Z,12.16
2018-12-21T21:02:47.734Z,12.19
2018-12-21T21:05:28.150Z,12.08
2018-12-21T21:08:00.107Z,12.17
2018-12-21T21:10:39.149Z,12.12
2018-12-21T21:13:19.863Z,12.04
2018-12-21T21:15:52.290Z,12.04
2018-12-21T21:18:23.224Z,12.04
2018-12-21T21:21:02.036Z,12.05
2018-12-21T21:23:33.583Z,12.06
2018-12-21T21:26:13.307Z,12.18
2018-12-21T21:28:51.190Z,12.16
2018-12-21T21:31:30.943Z,12.05
2018-12-21T21:34:05.960Z,12.06
2018-12-21T21:36:44.030Z,11.97
2018-12-21T21:39:17.455Z,12.09
2018-12-21T21:41:58.913Z,12.07
2018-12-21T21:44:38.076Z,12.10
2018-12-21T21:47:10.321Z,11.98
2018-12-21T21:49:42.548Z,12.06
2018-12-21T21:52:28.130Z,12.10
2018-12-21T21:55:08.262Z,11.97
2018-12-21T21:57:47.310Z,12.09
2018-12-21T22:03:14.307Z,11.94
2018-12-21T22:05:49.039Z,11.88
2018-12-21T22:08:25.267Z,11.89
2018-12-21T22:11:01.993Z,11.85
2018-12-21T22:13:41.404Z,11.87
2018-12-21T22:16:25.717Z,11.81
2018-12-21T22:18:58.434Z,11.99
2018-12-21T22:21:37.414Z,11.95
2018-12-21T22:24:15.246Z,11.94
2018-12-21T22:27:00.704Z,11.83
2018-12-21T22:29:33.870Z,11.83
2018-12-21T22:32:20.106Z,12.00
2018-12-21T22:34:50.782Z,11.78
2018-12-21T22:37:29.750Z,11.94
2018-12-21T22:40:07.770Z,11.97
2018-12-21T22:42:46.608Z,11.90
2018-12-21T22:45:17.987Z,11.81
2018-12-21T22:47:49.014Z,11.75
2018-12-21T22:50:28.862Z,11.87
2018-12-21T22:53:07.838Z,11.91
2018-12-21T22:55:46.979Z,11.77
2018-12-21T22:58:19.293Z,11.77
2018-12-21T23:00:49.333Z,11.78
2018-12-21T23:03:27.768Z,11.78
2018-12-21T23:06:05.747Z,11.79
2018-12-21T23:08:36.969Z,11.79
2018-12-21T23:11:12.779Z,11.77
2018-12-21T23:13:52.684Z,11.87
2018-12-21T23:16:31.859Z,11.70
2018-12-21T23:19:10.883Z,11.67
2018-12-21T23:21:43.306Z,11.85
2018-12-21T23:24:18.010Z,11.73
2018-12-21T23:32:43.559Z,11.63
2018-12-21T23:35:22.467Z,11.75
2018-12-21T23:37:53.834Z,11.68
2018-12-21T23:40:25.942Z,11.58
2018-12-21T23:42:59.015Z,11.63
2018-12-21T23:45:38.630Z,11.64
2018-12-21T23:48:12.774Z,11.88
2018-12-21T23:50:50.624Z,11.71
2018-12-21T23:53:21.946Z,11.60
2018-12-21T23:55:59.862Z,11.55
2018-12-21T23:58:29.304Z,11.60
